This is the latest recevied weather packets stored in our database for station/object W4EDL-13. If no packets are shown the sender has not sent any weather packets the latest 10 day(s).
| Time | Temp. | Humidity | Pressure | Rain* | Wind** | Luminosity | Snow |
|---|---|---|---|---|---|---|---|
| 1777984730 | 24.44° C | 70% | 1007.3 hPa | - | - | - | - |
| 1777984130 | 24.44° C | 70% | 1007.3 hPa | - | - | - | - |
| 1777983529 | 23.89° C | 72% | 1007.3 hPa | - | - | - | - |
| 1777982929 | 23.33° C | 73% | 1007.3 hPa | - | - | - | - |
| 1777982328 | 22.78° C | 77% | 1007.3 hPa | - | - | - | - |
| 1777981727 | 21.67° C | 82% | 1007.3 hPa | - | - | - | - |
| 1777981127 | 20° C | 89% | 1006.6 hPa | - | - | - | - |
| 1777980526 | 18.89° C | 94% | 1006.3 hPa | - | - | - | - |
| 1777980526 | 18.89° C | 94% | 1006.3 hPa | - | - | - | - |
| 1777979926 | 18.33° C | 95% | 1006.3 hPa | - | - | - | - |
| 1777979325 | 17.78° C | 96% | 1005.9 hPa | - | - | - | - |
| 1777978724 | 17.78° C | 96% | 1005.6 hPa | - | - | - | - |
| 1777978124 | 17.78° C | 97% | 1005.6 hPa | - | - | - | - |
| 1777977523 | 17.22° C | 97% | 1005.9 hPa | - | - | - | - |
| 1777976923 | 17.78° C | 96% | 1005.9 hPa | - | - | - | - |
| 1777976322 | 17.78° C | 95% | 1005.9 hPa | - | - | - | - |
| 1777975122 | 18.33° C | 94% | 1005.6 hPa | - | - | - | - |
| 1777974521 | 18.33° C | 94% | 1005.6 hPa | - | - | - | - |
| 1777973920 | 18.33° C | 93% | 1005.6 hPa | - | - | - | - |
| 1777973320 | 18.33° C | 92% | 1005.6 hPa | - | - | - | - |
| 1777972719 | 18.33° C | 93% | 1005.6 hPa | - | - | - | - |
| 1777972119 | 18.33° C | 93% | 1005.6 hPa | - | - | - | - |
| 1777971518 | 18.33° C | 92% | 1005.6 hPa | - | - | - | - |
| 1777970918 | 18.33° C | 92% | 1005.6 hPa | - | - | - | - |
| 1777970317 | 18.33° C | 90% | 1005.6 hPa | - | - | - | - |
* Rain since midnight (hover to see other rain measurements)
** Current wind speed in m/s (hover to see current wind gust speed)